createdAt,value
2022-08-28T00:02:05.642Z,1.92
2022-08-28T00:04:33.351Z,2.13
2022-08-28T00:07:01.566Z,1.85
2022-08-28T00:09:29.147Z,2.20
2022-08-28T00:11:56.731Z,2.28
2022-08-28T00:14:26.225Z,2.30
2022-08-28T00:16:54.549Z,2.05
2022-08-28T00:19:24.006Z,1.90
2022-08-28T00:21:52.294Z,2.03
2022-08-28T00:24:19.954Z,2.15
2022-08-28T00:27:05.558Z,2.33
2022-08-28T00:29:33.179Z,2.72
2022-08-28T00:32:00.959Z,1.77
2022-08-28T00:34:33.099Z,1.77
2022-08-28T00:37:01.579Z,2.65
2022-08-28T00:39:29.321Z,2.85
2022-08-28T00:41:57.962Z,2.58
2022-08-28T00:44:27.742Z,1.67
2022-08-28T00:46:57.812Z,2.22
2022-08-28T00:49:28.849Z,1.88
2022-08-28T00:52:09.042Z,1.55
2022-08-28T00:54:59.511Z,2.20
2022-08-28T00:57:48.456Z,1.63
2022-08-28T01:00:22.025Z,1.90
2022-08-28T01:02:49.623Z,1.95
2022-08-28T01:05:18.213Z,3.33
2022-08-28T01:07:46.973Z,1.98
2022-08-28T01:10:19.299Z,3.35
2022-08-28T01:15:18.315Z,3.50
2022-08-28T01:17:50.061Z,1.58
2022-08-28T01:20:22.128Z,1.70
2022-08-28T01:23:09.023Z,2.15
2022-08-28T01:25:39.053Z,1.77
2022-08-28T01:28:12.418Z,1.50
2022-08-28T01:30:42.900Z,2.88
2022-08-28T01:33:10.391Z,1.60
2022-08-28T01:35:43.750Z,1.45
2022-08-28T01:38:11.862Z,1.80
2022-08-28T01:40:45.126Z,1.70
2022-08-28T01:43:24.091Z,1.70
2022-08-28T01:45:56.039Z,2.33
2022-08-28T01:48:26.708Z,1.20
2022-08-28T01:50:55.145Z,1.48
2022-08-28T01:53:25.667Z,1.75
2022-08-28T01:56:02.978Z,2.58
2022-08-28T01:58:37.406Z,2.90
2022-08-28T02:01:06.063Z,2.13
2022-08-28T02:03:33.675Z,1.98
2022-08-28T02:06:01.157Z,1.60
2022-08-28T02:08:28.739Z,1.58
2022-08-28T02:10:56.198Z,1.48
2022-08-28T02:13:25.675Z,1.30
2022-08-28T02:15:53.330Z,2.28
2022-08-28T02:18:22.017Z,2.25
2022-08-28T02:20:49.583Z,1.65
2022-08-28T02:23:17.670Z,1.98
2022-08-28T02:25:45.205Z,1.98
2022-08-28T02:28:12.787Z,2.15
2022-08-28T02:30:41.025Z,1.55
2022-08-28T02:33:08.949Z,3.42
2022-08-28T02:35:36.497Z,1.42
2022-08-28T02:38:04.622Z,1.33
2022-08-28T02:40:32.678Z,1.45
2022-08-28T02:43:00.259Z,2.22
2022-08-28T02:45:27.770Z,1.35
2022-08-28T02:47:56.805Z,2.58
2022-08-28T02:50:24.815Z,1.50
2022-08-28T02:52:52.605Z,1.98
2022-08-28T02:55:20.800Z,1.70
2022-08-28T02:57:49.361Z,2.00
2022-08-28T03:00:21.079Z,1.92
2022-08-28T03:02:49.602Z,2.58
2022-08-28T03:05:20.417Z,2.63
2022-08-28T03:07:48.821Z,2.10
2022-08-28T03:10:16.921Z,1.67
2022-08-28T03:12:44.478Z,1.63
2022-08-28T03:15:12.605Z,1.83
2022-08-28T03:17:40.588Z,1.77
2022-08-28T03:20:11.327Z,2.83
2022-08-28T03:22:57.380Z,1.55
2022-08-28T03:25:25.642Z,2.03
2022-08-28T03:27:53.706Z,1.80
2022-08-28T03:30:23.234Z,2.25
2022-08-28T03:32:50.764Z,1.92
2022-08-28T03:35:18.545Z,2.15
2022-08-28T03:37:46.015Z,2.75
2022-08-28T03:40:14.593Z,1.80
2022-08-28T03:42:42.274Z,2.00
2022-08-28T03:45:18.952Z,1.70
2022-08-28T03:47:46.678Z,2.30
2022-08-28T03:50:14.607Z,2.83
2022-08-28T03:52:42.275Z,1.75
2022-08-28T03:55:12.668Z,1.92
2022-08-28T03:57:40.913Z,1.95
2022-08-28T04:00:13.351Z,1.80
2022-08-28T04:02:46.177Z,2.20
2022-08-28T04:05:14.993Z,2.00
2022-08-28T04:07:42.497Z,2.28
2022-08-28T04:10:10.663Z,2.72
2022-08-28T04:12:38.757Z,1.52
2022-08-28T04:15:07.845Z,1.80
2022-08-28T04:17:37.822Z,2.03
2022-08-28T04:20:06.153Z,1.98
2022-08-28T04:22:33.993Z,2.30
2022-08-28T04:25:01.943Z,1.80
2022-08-28T04:27:29.457Z,2.50
2022-08-28T04:29:56.946Z,1.80
2022-08-28T04:32:24.531Z,2.30
2022-08-28T04:34:52.438Z,1.83
2022-08-28T04:37:20.073Z,1.50
2022-08-28T04:39:50.289Z,1.85
2022-08-28T04:42:17.769Z,2.67
2022-08-28T04:44:45.259Z,2.35
2022-08-28T04:47:12.782Z,2.47
2022-08-28T04:49:40.749Z,2.25
2022-08-28T04:52:08.308Z,2.35
2022-08-28T04:54:36.209Z,2.55
2022-08-28T04:57:06.416Z,1.80
2022-08-28T04:59:34.354Z,1.40
2022-08-28T05:02:01.936Z,2.22
2022-08-28T05:04:29.688Z,1.85
2022-08-28T05:06:57.227Z,2.05
2022-08-28T05:09:24.682Z,2.80
2022-08-28T05:11:53.130Z,2.03
2022-08-28T05:14:21.713Z,1.90
2022-08-28T05:16:52.778Z,3.38
2022-08-28T05:19:22.435Z,2.83
2022-08-28T05:21:49.941Z,1.90
2022-08-28T05:24:18.139Z,2.83
2022-08-28T05:26:48.025Z,2.47
2022-08-28T05:29:16.767Z,2.53
2022-08-28T05:31:44.823Z,1.95
2022-08-28T05:34:14.449Z,2.08
2022-08-28T05:36:42.300Z,2.63
2022-08-28T05:39:12.060Z,2.83
2022-08-28T05:41:43.190Z,2.35
2022-08-28T05:44:14.186Z,2.53
2022-08-28T05:46:44.406Z,2.28
2022-08-28T05:49:13.479Z,2.47
2022-08-28T05:51:42.892Z,1.83
2022-08-28T05:54:11.459Z,1.38
2022-08-28T05:56:40.719Z,2.28
2022-08-28T05:59:09.151Z,1.55
2022-08-28T06:01:40.733Z,1.48
2022-08-28T06:04:15.330Z,1.65
2022-08-28T06:06:43.894Z,2.42
2022-08-28T06:09:15.052Z,1.80
2022-08-28T06:11:46.102Z,1.70
2022-08-28T06:14:17.463Z,1.73
2022-08-28T06:16:47.295Z,1.70
2022-08-28T06:19:15.233Z,1.38
2022-08-28T06:21:44.258Z,1.45
2022-08-28T06:24:13.400Z,1.15
2022-08-28T06:26:42.730Z,1.73
2022-08-28T06:29:12.890Z,1.08
2022-08-28T06:31:41.150Z,1.77
2022-08-28T06:34:10.017Z,2.45
2022-08-28T06:36:42.733Z,1.33
2022-08-28T06:39:12.255Z,0.93
2022-08-28T06:41:43.242Z,0.90
2022-08-28T06:44:13.462Z,1.25
2022-08-28T06:46:42.391Z,0.98
2022-08-28T06:49:10.290Z,1.75
2022-08-28T06:51:37.818Z,0.75
2022-08-28T06:54:06.426Z,0.90
2022-08-28T06:56:34.892Z,1.90
2022-08-28T06:59:02.603Z,0.80
2022-08-28T07:01:34.123Z,0.80
2022-08-28T07:04:06.160Z,0.70
2022-08-28T07:06:36.331Z,0.60
2022-08-28T07:09:06.986Z,0.98
2022-08-28T07:11:36.148Z,2.15
2022-08-28T07:14:05.199Z,0.75
2022-08-28T07:16:38.010Z,0.80
2022-08-28T07:19:06.767Z,0.90
2022-08-28T07:21:43.804Z,0.77
2022-08-28T07:24:14.607Z,0.90
2022-08-28T07:26:43.634Z,0.65
2022-08-28T07:29:11.927Z,0.73
2022-08-28T07:31:42.440Z,1.33
2022-08-28T07:34:12.083Z,0.80
2022-08-28T07:36:40.484Z,1.00
2022-08-28T07:39:09.974Z,1.08
2022-08-28T07:41:39.392Z,1.10
2022-08-28T07:44:25.803Z,1.02
2022-08-28T07:46:59.151Z,1.00
2022-08-28T07:49:27.463Z,0.70
2022-08-28T07:51:55.014Z,1.00
2022-08-28T07:54:23.527Z,0.80
2022-08-28T07:56:52.574Z,1.42
2022-08-28T07:59:21.948Z,0.70
2022-08-28T08:01:51.209Z,0.85
2022-08-28T08:04:21.261Z,0.68
2022-08-28T08:06:50.081Z,0.70
2022-08-28T08:09:20.193Z,0.50
2022-08-28T08:11:50.593Z,0.80
2022-08-28T08:14:18.958Z,0.60
2022-08-28T08:16:47.985Z,0.68
2022-08-28T08:19:17.332Z,0.80
2022-08-28T08:21:48.276Z,0.90
2022-08-28T08:24:22.186Z,0.50
2022-08-28T08:26:59.334Z,0.50
2022-08-28T08:29:29.478Z,0.70
2022-08-28T08:32:02.634Z,0.50
2022-08-28T08:34:30.615Z,0.73
2022-08-28T08:36:58.545Z,0.70
2022-08-28T08:39:26.395Z,0.65
2022-08-28T08:41:58.177Z,0.60
2022-08-28T08:44:33.601Z,0.60
2022-08-28T08:47:15.134Z,0.45
2022-08-28T08:49:57.229Z,0.50
2022-08-28T08:52:37.156Z,0.57
2022-08-28T08:55:31.944Z,0.60
2022-08-28T08:58:07.585Z,0.50
2022-08-28T09:00:40.571Z,0.70
2022-08-28T09:03:22.218Z,0.60
2022-08-28T09:05:55.712Z,0.63
2022-08-28T09:08:30.808Z,0.55
2022-08-28T09:11:05.554Z,0.50
2022-08-28T09:13:49.275Z,0.38
2022-08-28T09:16:36.558Z,0.30
2022-08-28T09:19:04.515Z,0.40
2022-08-28T09:21:35.764Z,0.88
2022-08-28T09:24:11.128Z,0.60
2022-08-28T09:26:40.769Z,0.50
2022-08-28T09:29:17.283Z,0.50
2022-08-28T09:31:45.148Z,0.50
2022-08-28T09:34:24.572Z,0.50
2022-08-28T09:36:54.558Z,0.75
2022-08-28T09:39:28.660Z,0.52
2022-08-28T09:42:22.570Z,0.47
2022-08-28T09:45:09.428Z,0.45
2022-08-28T09:47:43.775Z,0.60
2022-08-28T09:50:31.813Z,0.60
2022-08-28T09:53:10.477Z,1.15
2022-08-28T09:56:01.125Z,0.60
2022-08-28T09:58:43.475Z,0.80
2022-08-28T10:01:29.489Z,0.65
2022-08-28T10:04:13.729Z,0.60
2022-08-28T10:06:43.663Z,0.50
2022-08-28T10:09:29.249Z,0.80
2022-08-28T10:12:17.112Z,0.65
2022-08-28T10:14:56.812Z,0.45
2022-08-28T10:17:42.644Z,0.68
2022-08-28T10:20:48.073Z,0.50
2022-08-28T10:23:29.890Z,0.60
2022-08-28T10:26:21.495Z,0.38
2022-08-28T10:28:56.317Z,0.30
2022-08-28T10:31:36.257Z,0.40
2022-08-28T10:34:26.000Z,0.50
2022-08-28T10:37:05.378Z,0.60
2022-08-28T10:39:55.096Z,0.40
2022-08-28T10:42:39.346Z,0.60
2022-08-28T10:45:19.042Z,0.40
2022-08-28T10:47:58.694Z,0.40
2022-08-28T10:50:31.092Z,0.60
2022-08-28T10:53:03.873Z,0.73
2022-08-28T10:55:56.218Z,0.57
2022-08-28T10:58:27.510Z,0.50
2022-08-28T11:01:26.192Z,0.70
2022-08-28T11:03:54.540Z,0.60
2022-08-28T11:06:46.598Z,0.70
2022-08-28T11:09:30.529Z,0.40
2022-08-28T11:12:28.439Z,0.40
2022-08-28T11:14:56.264Z,0.50
2022-08-28T11:17:25.149Z,0.50
2022-08-28T11:20:16.603Z,0.60
2022-08-28T11:22:50.706Z,0.90
2022-08-28T11:25:32.618Z,0.50
2022-08-28T11:28:25.486Z,0.60
2022-08-28T11:31:16.347Z,0.40
2022-08-28T11:33:55.461Z,0.98
2022-08-28T11:36:23.446Z,0.45
2022-08-28T11:38:54.037Z,1.15
2022-08-28T11:41:22.563Z,0.65
2022-08-28T11:43:53.445Z,0.45
2022-08-28T11:46:26.068Z,0.60
2022-08-28T11:48:57.847Z,0.52
2022-08-28T11:51:43.367Z,0.45
2022-08-28T11:54:31.825Z,0.47
2022-08-28T11:57:27.158Z,1.25
2022-08-28T12:00:07.473Z,0.45
2022-08-28T12:02:47.694Z,0.40
2022-08-28T12:05:18.095Z,0.57
2022-08-28T12:07:51.003Z,0.40
2022-08-28T12:10:21.613Z,0.43
2022-08-28T12:12:50.086Z,0.50
2022-08-28T12:15:40.390Z,0.40
2022-08-28T12:18:16.961Z,0.50
2022-08-28T12:21:05.173Z,0.38
2022-08-28T12:23:39.428Z,0.68
2022-08-28T12:26:28.331Z,0.50
2022-08-28T12:29:16.723Z,0.40
2022-08-28T12:32:23.254Z,0.50
2022-08-28T12:34:59.753Z,0.65
2022-08-28T12:37:52.004Z,0.50
2022-08-28T12:40:22.280Z,0.60
2022-08-28T12:42:55.564Z,0.70
2022-08-28T12:45:30.747Z,0.50
2022-08-28T12:48:01.940Z,0.40
2022-08-28T12:50:33.724Z,0.50
2022-08-28T12:55:30.528Z,0.45
2022-08-28T12:57:58.261Z,0.43
2022-08-28T13:00:35.653Z,0.50
2022-08-28T13:03:08.146Z,0.50
2022-08-28T13:05:39.677Z,0.77
2022-08-28T13:08:11.300Z,0.43
2022-08-28T13:10:44.283Z,0.40
2022-08-28T13:13:29.035Z,0.52
2022-08-28T13:16:01.408Z,0.35
2022-08-28T13:18:39.609Z,0.40
2022-08-28T13:21:32.931Z,0.30
2022-08-28T13:24:22.855Z,0.40
2022-08-28T13:27:10.153Z,0.40
2022-08-28T13:29:38.497Z,0.45
2022-08-28T13:32:10.322Z,0.50
2022-08-28T13:34:47.654Z,0.40
2022-08-28T13:37:46.728Z,0.63
2022-08-28T13:40:45.898Z,0.50
2022-08-28T13:43:10.171Z,0.50
2022-08-28T13:45:44.099Z,0.50
2022-08-28T13:48:17.381Z,0.50
2022-08-28T13:50:48.051Z,0.60
2022-08-28T13:53:18.201Z,0.50
2022-08-28T13:55:46.916Z,0.40
2022-08-28T13:58:15.817Z,0.50
2022-08-28T14:00:47.304Z,0.50
2022-08-28T14:03:41.544Z,0.40
2022-08-28T14:06:11.829Z,0.60
2022-08-28T14:08:44.348Z,0.68
2022-08-28T14:11:14.337Z,0.50
2022-08-28T14:13:47.080Z,0.52
2022-08-28T14:16:22.875Z,0.73
2022-08-28T14:18:51.887Z,0.40
2022-08-28T14:21:19.727Z,0.57
2022-08-28T14:23:47.247Z,0.52
2022-08-28T14:26:14.826Z,0.60
2022-08-28T14:28:42.669Z,0.60
2022-08-28T14:31:14.453Z,0.40
2022-08-28T14:33:45.218Z,0.60
2022-08-28T14:36:22.151Z,0.40
2022-08-28T14:38:53.992Z,0.40
2022-08-28T14:41:23.202Z,0.60
2022-08-28T14:43:51.356Z,0.50
2022-08-28T14:46:21.859Z,0.45
2022-08-28T14:48:50.648Z,0.60
2022-08-28T14:51:19.247Z,0.43
2022-08-28T14:53:47.401Z,0.57
2022-08-28T14:56:14.900Z,0.50
2022-08-28T14:58:42.522Z,0.50
2022-08-28T15:01:10.418Z,0.68
2022-08-28T15:03:38.123Z,0.50
2022-08-28T15:06:10.936Z,0.50
2022-08-28T15:08:38.621Z,0.50
2022-08-28T15:11:08.402Z,0.57
2022-08-28T15:13:35.972Z,0.43
2022-08-28T15:16:10.573Z,0.60
2022-08-28T15:18:45.679Z,0.70
2022-08-28T15:21:21.635Z,0.68
2022-08-28T15:23:53.984Z,0.50
2022-08-28T15:26:23.187Z,0.70
2022-08-28T15:28:52.227Z,0.60
2022-08-28T15:31:20.100Z,0.40
2022-08-28T15:33:47.744Z,0.50
2022-08-28T15:36:15.259Z,0.98
2022-08-28T15:39:00.267Z,0.50
2022-08-28T15:41:29.293Z,0.60
2022-08-28T15:44:01.536Z,0.80
2022-08-28T15:46:31.437Z,0.70
2022-08-28T15:48:59.082Z,0.50
2022-08-28T15:51:26.874Z,1.00
2022-08-28T15:53:56.364Z,0.73
2022-08-28T15:56:24.513Z,1.05
2022-08-28T15:58:52.539Z,1.20
2022-08-28T16:01:22.349Z,0.70
2022-08-28T16:03:49.943Z,0.50
2022-08-28T16:06:21.095Z,0.50
2022-08-28T16:08:49.701Z,0.60
2022-08-28T16:11:22.998Z,0.60
2022-08-28T16:13:52.222Z,0.50
2022-08-28T16:16:19.916Z,0.60
2022-08-28T16:18:48.300Z,0.60
2022-08-28T16:21:16.189Z,0.50
2022-08-28T16:23:44.150Z,0.55
2022-08-28T16:26:11.957Z,0.50
2022-08-28T16:28:39.851Z,0.60
2022-08-28T16:31:18.868Z,0.93
2022-08-28T16:33:47.261Z,0.50
2022-08-28T16:36:15.734Z,0.50
2022-08-28T16:38:45.530Z,0.70
2022-08-28T16:41:19.580Z,0.40
2022-08-28T16:43:47.850Z,0.45
2022-08-28T16:46:21.378Z,0.50
2022-08-28T16:48:49.070Z,0.60
2022-08-28T16:51:17.737Z,0.60
2022-08-28T16:53:45.337Z,0.55
2022-08-28T16:56:15.482Z,0.60
2022-08-28T16:58:44.954Z,0.40
2022-08-28T17:01:13.837Z,0.52
2022-08-28T17:03:42.617Z,0.50
2022-08-28T17:06:31.906Z,0.40
2022-08-28T17:09:00.668Z,0.50
2022-08-28T17:11:29.412Z,1.17
2022-08-28T17:13:57.447Z,0.73
2022-08-28T17:16:27.219Z,0.60
2022-08-28T17:18:54.780Z,0.73
2022-08-28T17:21:43.186Z,0.45
2022-08-28T17:24:12.794Z,0.50
2022-08-28T17:26:41.655Z,0.70
2022-08-28T17:29:09.379Z,0.95
2022-08-28T17:31:37.243Z,0.65
2022-08-28T17:34:07.339Z,0.73
2022-08-28T17:36:37.628Z,0.70
2022-08-28T17:39:08.791Z,0.60
2022-08-28T17:41:36.950Z,0.57
2022-08-28T17:44:06.048Z,0.45
2022-08-28T17:46:37.710Z,0.93
2022-08-28T17:49:06.487Z,0.70
2022-08-28T17:51:42.607Z,0.80
2022-08-28T17:54:11.647Z,0.60
2022-08-28T17:56:39.138Z,0.65
2022-08-28T17:59:06.784Z,0.80
2022-08-28T18:01:34.376Z,0.60
2022-08-28T18:04:02.163Z,0.50
2022-08-28T18:06:29.652Z,0.70
2022-08-28T18:08:57.156Z,0.80
2022-08-28T18:11:25.860Z,0.55
2022-08-28T18:13:53.418Z,0.50
2022-08-28T18:16:21.585Z,0.52
2022-08-28T18:18:49.231Z,0.60
2022-08-28T18:21:16.713Z,0.73
2022-08-28T18:23:44.202Z,0.70
2022-08-28T18:26:12.173Z,0.50
2022-08-28T18:28:39.810Z,0.60
2022-08-28T18:31:08.336Z,0.90
2022-08-28T18:33:37.156Z,0.70
2022-08-28T18:36:09.195Z,0.75
2022-08-28T18:38:36.975Z,1.02
2022-08-28T18:41:06.426Z,1.35
2022-08-28T18:43:34.041Z,0.88
2022-08-28T18:46:03.013Z,0.90
2022-08-28T18:48:32.254Z,0.60
2022-08-28T18:50:59.760Z,0.70
2022-08-28T18:53:28.767Z,0.60
2022-08-28T18:55:56.607Z,0.70
2022-08-28T18:58:28.180Z,0.80
2022-08-28T19:00:55.873Z,0.60
2022-08-28T19:03:23.613Z,0.52
2022-08-28T19:05:51.893Z,0.60
2022-08-28T19:08:19.499Z,0.80
2022-08-28T19:10:47.274Z,0.73
2022-08-28T19:13:15.004Z,0.50
2022-08-28T19:15:42.673Z,0.70
2022-08-28T19:18:10.176Z,0.60
2022-08-28T19:20:37.691Z,0.60
2022-08-28T19:23:05.167Z,0.88
2022-08-28T19:25:32.793Z,0.70
2022-08-28T19:28:02.628Z,0.80
2022-08-28T19:30:33.513Z,0.70
2022-08-28T19:33:03.707Z,0.63
2022-08-28T19:35:31.374Z,0.77
2022-08-28T19:37:58.926Z,0.90
2022-08-28T19:40:27.335Z,0.63
2022-08-28T19:42:54.923Z,0.80
2022-08-28T19:45:23.158Z,0.90
2022-08-28T19:47:51.604Z,0.70
2022-08-28T19:50:20.261Z,0.70
2022-08-28T19:52:47.873Z,0.90
2022-08-28T19:55:25.721Z,0.70
2022-08-28T19:57:53.290Z,0.70
2022-08-28T20:00:25.121Z,0.80
2022-08-28T20:02:53.334Z,0.70
2022-08-28T20:05:21.643Z,0.70
2022-08-28T20:07:49.731Z,1.02
2022-08-28T20:10:18.415Z,0.80
2022-08-28T20:12:48.367Z,0.80
2022-08-28T20:15:18.318Z,0.80
2022-08-28T20:17:49.843Z,1.10
2022-08-28T20:20:24.577Z,0.85
2022-08-28T20:22:54.407Z,0.88
2022-08-28T20:25:22.305Z,0.60
2022-08-28T20:27:49.829Z,1.02
2022-08-28T20:30:18.032Z,1.10
2022-08-28T20:32:45.838Z,0.93
2022-08-28T20:35:15.335Z,0.80
2022-08-28T20:37:45.326Z,0.80
2022-08-28T20:40:19.561Z,0.90
2022-08-28T20:42:47.465Z,0.75
2022-08-28T20:45:16.537Z,0.90
2022-08-28T20:47:44.664Z,0.80
2022-08-28T20:50:13.823Z,1.50
2022-08-28T20:52:42.268Z,1.23
2022-08-28T20:55:10.710Z,0.85
2022-08-28T20:57:38.326Z,0.70
2022-08-28T21:00:10.552Z,0.75
2022-08-28T21:05:06.697Z,0.70
2022-08-28T21:07:35.207Z,0.90
2022-08-28T21:10:05.346Z,0.82
2022-08-28T21:12:39.942Z,0.77
2022-08-28T21:15:09.471Z,0.93
2022-08-28T21:17:37.310Z,0.80
2022-08-28T21:20:12.997Z,0.90
2022-08-28T21:22:41.437Z,0.85
2022-08-28T21:25:11.388Z,0.90
2022-08-28T21:27:39.304Z,0.80
2022-08-28T21:30:08.614Z,0.60
2022-08-28T21:32:36.933Z,0.70
2022-08-28T21:35:06.955Z,0.77
2022-08-28T21:37:35.155Z,1.00
2022-08-28T21:40:03.881Z,0.90
2022-08-28T21:42:31.545Z,0.80
2022-08-28T21:44:59.248Z,0.73
2022-08-28T21:47:27.423Z,0.80
2022-08-28T21:49:56.849Z,1.23
2022-08-28T21:52:28.111Z,0.70
2022-08-28T21:55:08.020Z,0.97
2022-08-28T21:57:35.793Z,0.80
2022-08-28T22:00:05.598Z,0.60
2022-08-28T22:02:33.214Z,1.08
2022-08-28T22:05:00.782Z,0.80
2022-08-28T22:07:28.287Z,0.90
2022-08-28T22:09:55.776Z,0.60
2022-08-28T22:12:23.250Z,0.75
2022-08-28T22:14:50.742Z,0.88
2022-08-28T22:17:18.220Z,1.00
2022-08-28T22:19:46.730Z,1.00
2022-08-28T22:22:32.117Z,1.00
2022-08-28T22:24:59.920Z,0.80
2022-08-28T22:27:27.522Z,0.80
2022-08-28T22:29:54.989Z,0.70
2022-08-28T22:32:25.524Z,0.70
2022-08-28T22:34:55.676Z,0.82
2022-08-28T22:37:23.938Z,0.98
2022-08-28T22:39:51.568Z,1.00
2022-08-28T22:42:19.497Z,0.90
2022-08-28T22:44:47.239Z,1.13
2022-08-28T22:47:14.769Z,1.23
2022-08-28T22:49:42.655Z,0.77
2022-08-28T22:52:11.814Z,0.90
2022-08-28T22:54:39.395Z,0.70
2022-08-28T22:57:06.924Z,0.80
2022-08-28T22:59:35.334Z,0.80
2022-08-28T23:02:03.873Z,0.80
2022-08-28T23:04:31.926Z,0.80
2022-08-28T23:06:59.423Z,0.80
2022-08-28T23:09:27.519Z,0.88
2022-08-28T23:11:55.023Z,1.08
2022-08-28T23:14:25.797Z,0.75
2022-08-28T23:16:55.866Z,1.33
2022-08-28T23:19:23.494Z,0.85
2022-08-28T23:21:51.199Z,0.90
2022-08-28T23:24:19.375Z,1.08
2022-08-28T23:26:46.928Z,1.00
2022-08-28T23:29:15.237Z,0.93
2022-08-28T23:31:42.858Z,0.90
2022-08-28T23:34:10.415Z,0.80
2022-08-28T23:36:39.420Z,0.90
2022-08-28T23:39:10.491Z,0.70
2022-08-28T23:41:37.990Z,0.90
2022-08-28T23:44:09.043Z,0.80
2022-08-28T23:46:41.630Z,0.95
2022-08-28T23:49:10.082Z,1.20
2022-08-28T23:51:37.751Z,0.73
2022-08-28T23:54:05.474Z,0.80
2022-08-28T23:56:33.802Z,0.85
2022-08-28T23:59:01.340Z,1.17
